CST,Max TemperatureF,Mean TemperatureF,Min TemperatureF,Max Dew PointF,MeanDew PointF,Min DewpointF,Max Humidity, Mean Humidity, Min Humidity, Max Sea Level PressureIn, Mean Sea Level PressureIn, Min Sea Level PressureIn, Max VisibilityMiles, Mean VisibilityMiles, Min VisibilityMiles, Max Wind SpeedMPH, Mean Wind SpeedMPH, Max Gust SpeedMPH,PrecipitationIn, CloudCover, Events, WindDirDegrees
2012-12-1,50,44,37,48,39,34,100,91,87,30.21,29.98,29.79,8,3,1,18,9,24,0.00,8,,166
2012-12-2,48,44,39,48,39,34,100,88,81,30.07,29.95,29.79,10,7,2,12,7,,0.00,8,,300
2012-12-3,57,49,41,55,46,37,100,91,71,30.06,29.81,29.63,10,3,0,22,13,31,0.01,7,,178
2012-12-4,46,35,24,39,24,10,76,57,41,30.28,30.00,29.79,10,10,10,22,16,29,0.01,0,,283
2012-12-5,33,28,24,27,19,12,75,67,55,30.43,30.34,30.19,10,10,10,16,9,22,0.00,4,,180
2012-12-6,41,37,33,36,33,27,87,79,70,30.18,29.94,29.82,10,10,5,25,13,36,0.02,6,,194
2012-12-7,35,34,32,30,26,23,81,73,65,30.00,29.96,29.86,10,10,10,13,8,,0.00,3,,350
2012-12-8,33,30,24,27,23,18,86,73,56,30.18,30.05,29.96,10,10,5,15,8,18,0.00,5,,22
2012-12-9,33,30,26,30,26,19,93,81,60,30.18,29.98,29.71,10,6,1,15,8,22,0.12,7,,85
2012-12-10,30,28,24,28,22,18,93,78,69,29.89,29.78,29.69,10,8,1,18,11,23,0.04,8,,357
2012-12-11,26,24,21,21,18,12,93,76,55,30.02,29.89,29.82,10,10,9,18,8,25,0.00,8,,224
2012-12-12,39,27,15,30,21,12,93,73,56,30.20,30.12,30.02,10,10,8,21,9,30,0.00,5,,199
2012-12-13,39,34,28,27,23,21,80,62,49,30.11,30.06,30.01,10,10,10,20,13,26,0.00,1,,217
2012-12-14,37,32,28,34,29,23,93,82,75,30.23,30.16,30.07,10,10,10,9,5,,0.00,5,,69
2012-12-15,42,40,37,41,36,34,93,88,81,30.06,29.78,29.51,10,6,2,17,12,25,0.42,6,,132
2012-12-16,42,38,35,41,37,32,100,91,81,29.64,29.55,29.50,10,5,0,10,5,,0.06,8,,267
2012-12-17,35,32,28,32,27,23,87,79,70,29.70,29.67,29.63,10,10,9,12,9,,0.00,8,,266
2012-12-18,32,30,28,27,24,19,80,74,64,29.80,29.73,29.68,10,10,10,7,3,,0.00,7,,9
2012-12-19,32,26,21,25,23,19,93,80,74,30.07,29.98,29.80,10,10,8,15,5,,0.00,4,,266
2012-12-20,33,32,30,32,29,25,93,86,80,29.99,29.55,29.32,10,3,1,33,13,44,0.49,8,,37
2012-12-21,33,28,23,28,21,16,87,76,69,30.09,29.83,29.45,10,6,1,33,26,43,0.00,8,,334
2012-12-22,26,22,17,18,15,10,86,73,55,30.11,30.02,29.90,10,10,10,16,10,21,0.00,1,,264
2012-12-23,26,19,12,21,14,7,93,73,59,30.04,29.99,29.89,10,10,9,17,10,23,0.00,5,,323
2012-12-24,26,20,14,19,17,10,93,81,69,30.12,29.99,29.94,10,8,2,17,5,24,0.00,7,,346
2012-12-25,26,22,17,19,16,12,86,75,68,30.37,30.29,30.12,10,10,10,14,10,18,0.00,6,,9
2012-12-26,26,24,21,21,18,16,86,73,64,30.33,30.21,30.14,10,10,10,18,12,28,0.00,8,,20
2012-12-27,26,25,24,19,18,16,80,73,69,30.20,30.17,30.13,10,10,10,17,11,23,0.00,8,,353
2012-12-28,26,24,21,23,20,16,93,81,69,30.15,30.05,29.92,10,7,2,13,5,,0.00,8,,25
2012-12-29,28,26,23,25,20,16,93,79,69,30.07,29.96,29.90,10,9,1,16,10,16,0.00,8,,342
2012-12-30,21,16,12,16,11,7,85,75,68,30.20,30.10,29.89,10,9,5,14,9,18,0.00,5,,233
2012-12-31,26,20,14,19,12,3,86,68,54,30.11,29.97,29.85,10,9,6,17,11,22,0.00,6,,298